Time;durP1;ratioP1;P1;durP2;ratioP2;P2;SDS_P1;SDS_P2;PMS_P1;PMS_P2;Temp;Humidity;BMP_temperature;BMP_pressure;BME280_temperature;BME280_humidity;BME280_pressure;Samples;Min_cycle;Max_cycle;Signal;HPM_P1;HPM_P2
2021/12/10 00:01:23;;;;;;;7.97;6.63;;;5.10;99.90;;;;;;4982584;28;20468;-71
2021/12/10 00:03:54;;;;;;;8.00;7.20;;;5.10;99.90;;;;;;4966677;28;20432;-71
2021/12/10 00:06:36;;;;;;;8.90;8.00;;;5.10;99.90;;;;;;4971192;28;20553;-71
2021/12/10 00:09:16;;;;;;;7.47;6.70;;;5.10;99.90;;;;;;4973374;28;20417;-71
2021/12/10 00:11:50;;;;;;;8.33;7.47;;;5.10;99.90;;;;;;4973354;28;20491;-71
2021/12/10 00:14:16;;;;;;;8.13;7.20;;;5.10;99.90;;;;;;4971774;28;20435;-71
2021/12/10 00:16:43;;;;;;;11.27;7.90;;;5.10;99.90;;;;;;4971312;28;20951;-71
2021/12/10 00:19:36;;;;;;;7.13;6.43;;;5.10;99.90;;;;;;4972950;28;20783;-71
2021/12/10 00:22:08;;;;;;;9.70;7.90;;;5.10;99.90;;;;;;4973145;28;20399;-71
2021/12/10 00:24:34;;;;;;;8.40;7.10;;;5.20;99.90;;;;;;4971391;28;20458;-71
2021/12/10 00:27:06;;;;;;;7.90;7.10;;;5.20;99.90;;;;;;4970764;28;20490;-71
2021/12/10 00:29:34;;;;;;;8.03;6.87;;;5.20;99.90;;;;;;4972901;28;20492;-71
2021/12/10 00:32:05;;;;;;;8.80;6.57;;;5.20;99.90;;;;;;4972792;28;20420;-71
2021/12/10 00:34:38;;;;;;;8.53;6.83;;;5.20;99.90;;;;;;4972577;28;20494;-71
2021/12/10 00:37:08;;;;;;;8.07;6.33;;;5.20;99.90;;;;;;4970168;28;20425;-71
2021/12/10 00:39:38;;;;;;;9.33;7.63;;;5.20;99.90;;;;;;4969150;28;20420;-71
2021/12/10 00:42:15;;;;;;;9.17;6.60;;;5.20;99.90;;;;;;4967579;28;20417;-71
2021/12/10 00:44:41;;;;;;;9.10;6.87;;;5.30;99.90;;;;;;4952983;29;20443;-71
2021/12/10 00:47:07;;;;;;;11.07;7.03;;;5.30;99.90;;;;;;4952901;29;20472;-70
2021/12/10 00:49:33;;;;;;;9.00;7.27;;;5.30;99.90;;;;;;4953115;28;20185;-71
2021/12/10 00:52:00;;;;;;;7.43;6.77;;;5.20;99.90;;;;;;4957595;28;20561;-70
2021/12/10 00:54:26;;;;;;;8.60;7.23;;;5.20;99.90;;;;;;4955703;29;20468;-71
2021/12/10 00:56:51;;;;;;;7.20;6.50;;;5.20;99.90;;;;;;4956957;29;20417;-71
2021/12/10 00:59:20;;;;;;;8.17;6.70;;;5.20;99.90;;;;;;4957150;28;20440;-71
2021/12/10 01:01:48;;;;;;;7.80;6.50;;;5.20;99.90;;;;;;4958207;28;20178;-71
2021/12/10 01:04:31;;;;;;;7.50;6.40;;;5.20;99.90;;;;;;4939379;29;20460;-71
2021/12/10 01:06:59;;;;;;;8.87;7.20;;;5.20;99.90;;;;;;4956657;28;20409;-71
2021/12/10 01:09:28;;;;;;;10.00;6.90;;;5.10;99.90;;;;;;4958162;28;20423;-71
2021/12/10 01:12:00;;;;;;;7.20;6.43;;;5.10;99.90;;;;;;4960241;28;21067;-71
2021/12/10 01:14:58;;;;;;;11.40;6.77;;;5.10;99.90;;;;;;4956913;29;20458;-71
2021/12/10 01:25:55;;;;;;;7.90;6.30;;;5.10;99.90;;;;;;4955994;29;20631;-70
2021/12/10 01:28:22;;;;;;;10.33;8.00;;;5.10;99.90;;;;;;4956761;28;20412;-71
2021/12/10 01:30:47;;;;;;;7.70;6.70;;;5.10;99.90;;;;;;4956290;28;20418;-71
2021/12/10 01:33:17;;;;;;;11.13;6.20;;;5.10;99.90;;;;;;4957496;28;20441;-71
2021/12/10 01:35:53;;;;;;;10.73;7.57;;;5.10;99.90;;;;;;4955829;29;20491;-70
2021/12/10 01:38:18;;;;;;;9.87;6.97;;;5.00;99.90;;;;;;4955763;28;20432;-71
2021/12/10 01:40:48;;;;;;;10.63;6.57;;;5.00;99.90;;;;;;4956358;28;20455;-71
2021/12/10 01:43:22;;;;;;;7.73;6.83;;;5.00;99.90;;;;;;4956192;29;20245;-71
2021/12/10 01:45:53;;;;;;;8.03;7.00;;;5.00;99.90;;;;;;4973649;28;20596;-71
2021/12/10 01:48:29;;;;;;;11.03;7.63;;;5.00;99.90;;;;;;4975446;28;20507;-70
2021/12/10 01:50:56;;;;;;;12.93;7.53;;;5.00;99.90;;;;;;4975446;28;20474;-71
2021/12/10 01:53:25;;;;;;;7.90;6.60;;;5.10;99.90;;;;;;4975510;28;20423;-70
2021/12/10 01:55:53;;;;;;;8.77;6.43;;;5.10;99.90;;;;;;4971958;28;20501;-71
2021/12/10 01:58:21;;;;;;;9.43;6.30;;;5.10;99.90;;;;;;4975174;28;20416;-71
2021/12/10 02:00:56;;;;;;;8.67;6.30;;;5.00;99.90;;;;;;4974910;28;20458;-70
2021/12/10 02:03:22;;;;;;;7.10;5.17;;;5.00;99.90;;;;;;4975046;28;20504;-71
2021/12/10 02:05:48;;;;;;;7.07;5.57;;;5.00;99.90;;;;;;4972940;28;20463;-71
2021/12/10 02:08:14;;;;;;;9.83;5.80;;;5.00;99.90;;;;;;4974997;28;20427;-71
2021/12/10 02:10:40;;;;;;;8.43;5.90;;;5.00;99.90;;;;;;4975178;28;20179;-71
2021/12/10 02:13:06;;;;;;;10.53;6.07;;;5.00;99.90;;;;;;4972960;28;21007;-70
2021/12/10 02:15:32;;;;;;;6.03;5.40;;;4.90;99.90;;;;;;4974828;28;20459;-71
2021/12/10 02:17:59;;;;;;;7.37;4.73;;;5.00;99.90;;;;;;4973592;28;20177;-71
2021/12/10 02:20:52;;;;;;;9.83;5.73;;;5.00;99.90;;;;;;4975349;28;20413;-71
2021/12/10 02:23:19;;;;;;;5.90;4.47;;;4.90;99.90;;;;;;4973918;28;20417;-71
2021/12/10 02:25:45;;;;;;;6.07;4.47;;;4.90;99.90;;;;;;4974125;28;20481;-71
2021/12/10 02:28:12;;;;;;;6.50;5.50;;;4.90;99.90;;;;;;4975087;28;20427;-71
2021/12/10 02:30:39;;;;;;;5.27;4.80;;;4.90;99.90;;;;;;4974725;28;20465;-71
2021/12/10 02:33:05;;;;;;;10.37;4.97;;;4.80;99.90;;;;;;4972970;28;20426;-70
2021/12/10 02:35:31;;;;;;;8.83;5.10;;;4.80;99.90;;;;;;4973236;28;20466;-70
2021/12/10 02:37:58;;;;;;;7.40;4.93;;;4.80;99.90;;;;;;4974715;28;20833;-71
2021/12/10 02:40:26;;;;;;;7.30;4.23;;;4.80;99.90;;;;;;4968526;28;20427;-71
2021/12/10 02:42:53;;;;;;;7.80;5.97;;;4.90;99.90;;;;;;4962211;28;20421;-71
2021/12/10 02:45:22;;;;;;;5.57;4.53;;;4.90;99.90;;;;;;4939062;29;20511;-71
2021/12/10 02:47:49;;;;;;;7.43;5.00;;;4.90;99.90;;;;;;4954057;29;20423;-71
2021/12/10 02:50:17;;;;;;;5.60;4.67;;;4.90;99.90;;;;;;4954803;28;20503;-70
2021/12/10 02:52:43;;;;;;;6.50;4.33;;;4.90;99.90;;;;;;4954986;29;20425;-71
2021/12/10 02:55:10;;;;;;;7.20;4.77;;;4.90;99.90;;;;;;4954736;28;21025;-71
2021/12/10 02:57:39;;;;;;;5.27;3.77;;;5.00;99.90;;;;;;4955466;28;20181;-71
2021/12/10 03:00:12;;;;;;;5.10;3.70;;;5.00;99.90;;;;;;4954818;29;20412;-70
2021/12/10 03:02:38;;;;;;;8.60;4.57;;;5.00;99.90;;;;;;4953456;29;20442;-71
2021/12/10 03:05:06;;;;;;;7.17;3.93;;;5.00;99.90;;;;;;4954844;29;20500;-71
2021/12/10 03:07:32;;;;;;;6.30;4.30;;;4.90;99.90;;;;;;4955337;28;20932;-71
2021/12/10 03:09:58;;;;;;;12.33;4.63;;;4.90;99.90;;;;;;4954644;29;20416;-70
2021/12/10 03:12:24;;;;;;;7.53;4.60;;;4.90;99.90;;;;;;4954458;28;20419;-70
2021/12/10 03:14:55;;;;;;;7.07;4.03;;;4.80;99.90;;;;;;4953795;29;20291;-71
2021/12/10 03:17:24;;;;;;;7.27;4.60;;;4.80;99.90;;;;;;4954431;28;20591;-71
2021/12/10 03:19:51;;;;;;;4.10;3.80;;;4.80;99.90;;;;;;4955357;28;20428;-70
2021/12/10 03:22:17;;;;;;;7.90;4.00;;;4.80;99.90;;;;;;4954301;28;20482;-71
2021/12/10 03:24:42;;;;;;;6.20;3.50;;;4.70;99.90;;;;;;4954121;29;20943;-71
2021/12/10 03:27:11;;;;;;;5.90;3.77;;;4.70;99.90;;;;;;4954102;28;20704;-71
2021/12/10 03:29:40;;;;;;;3.63;3.33;;;4.70;99.90;;;;;;4953907;28;20188;-70
2021/12/10 03:32:10;;;;;;;7.10;4.60;;;4.70;99.90;;;;;;4954239;29;20896;-71
2021/12/10 03:34:36;;;;;;;6.03;3.43;;;4.60;99.90;;;;;;4954047;28;20491;-71
2021/12/10 03:37:04;;;;;;;5.23;3.23;;;4.70;99.90;;;;;;4953379;28;20413;-71
2021/12/10 03:39:29;;;;;;;6.57;3.97;;;4.60;99.90;;;;;;4953795;28;20969;-71
2021/12/10 03:41:57;;;;;;;3.37;3.00;;;4.60;99.90;;;;;;4954139;29;20409;-70
2021/12/10 03:44:23;;;;;;;5.13;3.27;;;4.60;99.90;;;;;;4954029;28;20169;-70
2021/12/10 03:46:50;;;;;;;3.97;3.10;;;4.60;99.90;;;;;;4953718;28;20416;-71
2021/12/10 03:49:17;;;;;;;5.73;2.80;;;4.60;99.90;;;;;;4953825;28;20933;-71
2021/12/10 03:51:44;;;;;;;4.60;2.70;;;4.60;99.90;;;;;;4954837;28;20432;-71
2021/12/10 03:54:10;;;;;;;4.53;3.37;;;4.60;99.90;;;;;;4953779;29;20412;-71
2021/12/10 03:56:38;;;;;;;5.03;2.60;;;4.60;99.90;;;;;;4953370;28;20819;-72
2021/12/10 03:59:10;;;;;;;5.87;2.93;;;4.50;99.90;;;;;;4953836;29;20407;-70
2021/12/10 04:01:38;;;;;;;4.30;2.83;;;4.60;99.90;;;;;;4954861;28;20529;-70
2021/12/10 04:04:07;;;;;;;4.53;2.70;;;4.60;99.90;;;;;;4953452;29;20416;-70
2021/12/10 04:06:33;;;;;;;7.93;2.90;;;4.60;99.90;;;;;;4953184;29;20482;-71
2021/12/10 04:08:59;;;;;;;5.43;2.93;;;4.60;99.90;;;;;;4952419;29;20456;-71
2021/12/10 04:11:26;;;;;;;4.13;2.67;;;4.60;99.90;;;;;;4954632;28;20187;-71
2021/12/10 04:13:54;;;;;;;5.40;2.80;;;4.60;99.90;;;;;;4952286;29;20434;-71
2021/12/10 04:16:22;;;;;;;4.50;2.60;;;4.60;99.90;;;;;;4953011;28;20473;-70
2021/12/10 04:18:49;;;;;;;3.67;2.23;;;4.60;99.90;;;;;;4953650;28;20968;-71
2021/12/10 04:21:15;;;;;;;4.67;2.07;;;4.60;99.90;;;;;;4953469;29;20422;-71
2021/12/10 04:23:42;;;;;;;4.67;2.57;;;4.50;99.90;;;;;;4954436;28;20867;-71
2021/12/10 04:26:09;;;;;;;5.40;2.20;;;4.50;99.90;;;;;;4952196;28;20436;-72
2021/12/10 04:28:35;;;;;;;1.80;1.67;;;4.60;99.90;;;;;;4952196;29;20913;-71
2021/12/10 04:31:01;;;;;;;3.47;2.27;;;4.60;99.90;;;;;;4951902;29;20426;-71
2021/12/10 04:33:27;;;;;;;2.20;2.00;;;4.50;99.90;;;;;;4954699;28;20192;-71
2021/12/10 04:35:56;;;;;;;6.10;2.23;;;4.50;99.90;;;;;;4951788;29;20208;-71
2021/12/10 04:38:24;;;;;;;3.40;2.30;;;4.50;99.90;;;;;;4952029;28;20554;-71
2021/12/10 04:40:51;;;;;;;3.90;2.10;;;4.50;99.90;;;;;;4953336;28;20415;-71
2021/12/10 04:43:19;;;;;;;4.57;2.40;;;4.60;99.90;;;;;;4953947;28;20418;-70
2021/12/10 04:45:46;;;;;;;3.00;2.03;;;4.50;99.90;;;;;;4952910;28;20994;-70
2021/12/10 04:48:11;;;;;;;3.20;1.60;;;4.50;99.90;;;;;;4951981;29;20799;-71
2021/12/10 04:50:37;;;;;;;8.53;2.37;;;4.50;99.90;;;;;;4951887;29;20419;-70
2021/12/10 04:53:07;;;;;;;6.50;2.63;;;4.50;99.90;;;;;;4952987;29;20671;-70
2021/12/10 04:55:33;;;;;;;7.83;2.07;;;4.50;99.90;;;;;;4952438;28;20208;-70
2021/12/10 04:57:59;;;;;;;9.77;2.43;;;4.50;99.90;;;;;;4952545;29;20959;-71
2021/12/10 05:00:28;;;;;;;5.37;2.40;;;4.50;99.90;;;;;;4958920;28;20193;-71
2021/12/10 05:02:56;;;;;;;4.30;2.33;;;4.50;99.90;;;;;;4953538;28;20207;-71
2021/12/10 05:05:22;;;;;;;2.30;1.80;;;4.50;99.90;;;;;;4953921;28;20880;-70
2021/12/10 05:07:48;;;;;;;4.10;2.33;;;4.50;99.90;;;;;;5007006;23;20491;-69
2021/12/10 05:10:15;;;;;;;4.27;2.20;;;4.50;99.90;;;;;;5025473;28;20419;-69
2021/12/10 05:12:41;;;;;;;5.03;2.80;;;4.50;99.90;;;;;;5032248;28;20472;-69
2021/12/10 05:15:09;;;;;;;7.50;2.80;;;4.50;99.90;;;;;;5026148;28;20536;-69
2021/12/10 05:17:36;;;;;;;4.57;2.73;;;4.50;99.90;;;;;;5006898;28;20232;-69
2021/12/10 05:20:10;;;;;;;4.80;2.40;;;4.50;99.90;;;;;;5021126;28;20505;-68
2021/12/10 05:22:36;;;;;;;3.70;2.60;;;4.50;99.90;;;;;;5014344;28;20402;-69
2021/12/10 05:25:02;;;;;;;11.03;2.60;;;4.50;99.90;;;;;;5016198;28;20511;-68
2021/12/10 05:27:28;;;;;;;3.33;2.73;;;4.50;99.90;;;;;;5009320;28;20567;-68
2021/12/10 05:29:53;;;;;;;4.23;2.80;;;4.60;99.90;;;;;;5011647;28;21160;-69
2021/12/10 05:32:19;;;;;;;4.07;3.10;;;4.60;99.90;;;;;;5011606;28;20179;-68
2021/12/10 05:34:46;;;;;;;3.80;2.67;;;4.60;99.90;;;;;;5011458;28;20191;-68
2021/12/10 05:37:13;;;;;;;5.87;3.00;;;4.60;99.90;;;;;;5014025;28;20211;-68
2021/12/10 05:39:38;;;;;;;2.97;2.63;;;4.60;99.90;;;;;;5005745;28;20541;-68
2021/12/10 05:42:04;;;;;;;2.60;2.40;;;4.60;99.90;;;;;;5016159;28;20466;-68
2021/12/10 05:44:30;;;;;;;6.53;3.30;;;4.60;99.90;;;;;;5031040;28;20245;-67
2021/12/10 05:46:58;;;;;;;6.43;2.53;;;4.60;99.90;;;;;;5033682;28;20436;-69
2021/12/10 05:49:24;;;;;;;4.70;3.30;;;4.60;99.90;;;;;;5014790;28;20512;-67
2021/12/10 05:51:50;;;;;;;5.40;2.80;;;4.60;99.90;;;;;;5023551;28;20555;-68
2021/12/10 05:54:15;;;;;;;6.63;2.50;;;4.50;99.90;;;;;;5038046;28;20452;-68
2021/12/10 05:56:41;;;;;;;6.53;3.27;;;4.50;99.90;;;;;;5025829;28;20587;-67
2021/12/10 05:59:07;;;;;;;4.37;3.40;;;4.60;99.90;;;;;;5023314;28;20213;-68
2021/12/10 06:01:34;;;;;;;5.63;3.00;;;4.60;99.90;;;;;;5017678;28;20210;-67
2021/12/10 06:04:00;;;;;;;6.83;2.60;;;4.60;99.90;;;;;;5011681;28;20444;-68
2021/12/10 06:06:28;;;;;;;12.23;3.97;;;4.60;99.90;;;;;;5011184;28;20451;-66
2021/12/10 06:08:57;;;;;;;11.43;3.60;;;4.60;99.90;;;;;;5015396;28;20859;-68
2021/12/10 06:11:24;;;;;;;4.37;3.03;;;4.50;99.90;;;;;;5009495;28;20481;-67
2021/12/10 06:13:50;;;;;;;4.07;3.00;;;4.50;99.90;;;;;;5031619;28;20436;-68
2021/12/10 06:16:16;;;;;;;5.67;3.00;;;4.50;99.90;;;;;;5027462;28;20485;-69
2021/12/10 06:18:43;;;;;;;3.33;3.00;;;4.60;99.90;;;;;;5021390;28;20452;-67
2021/12/10 06:21:09;;;;;;;6.20;3.60;;;4.60;99.90;;;;;;5014351;28;20473;-67
2021/12/10 06:23:35;;;;;;;6.33;3.30;;;4.60;99.90;;;;;;5020754;28;20441;-67
2021/12/10 06:26:03;;;;;;;10.77;3.53;;;4.50;99.90;;;;;;5019499;28;20474;-67
2021/12/10 06:28:30;;;;;;;6.90;3.00;;;4.60;99.90;;;;;;5008776;28;20444;-69
2021/12/10 06:30:55;;;;;;;4.03;2.50;;;4.50;99.90;;;;;;5011744;28;20436;-67
2021/12/10 06:33:23;;;;;;;3.67;2.53;;;4.60;99.90;;;;;;5013074;28;21109;-67
2021/12/10 06:35:51;;;;;;;6.37;3.00;;;4.60;99.90;;;;;;5013783;28;20187;-67
2021/12/10 06:38:18;;;;;;;7.00;2.87;;;4.60;99.90;;;;;;5014822;28;20430;-68
2021/12/10 06:40:44;;;;;;;4.80;2.70;;;4.50;99.90;;;;;;5018992;28;20414;-68
2021/12/10 06:43:11;;;;;;;3.37;2.90;;;4.50;99.90;;;;;;5034489;28;20427;-67
2021/12/10 06:45:37;;;;;;;4.50;2.60;;;4.50;99.90;;;;;;5034176;28;20401;-68
2021/12/10 06:48:05;;;;;;;3.07;2.77;;;4.50;99.90;;;;;;5033215;28;20439;-67
2021/12/10 06:50:35;;;;;;;8.40;2.60;;;4.50;99.90;;;;;;5034522;28;20416;-68
2021/12/10 06:53:01;;;;;;;7.43;2.80;;;4.50;99.90;;;;;;5034603;28;20410;-68
2021/12/10 06:55:28;;;;;;;5.53;3.30;;;4.60;99.90;;;;;;5034640;28;20452;-68
2021/12/10 06:57:54;;;;;;;5.73;2.70;;;4.60;99.90;;;;;;5036995;28;20194;-68
2021/12/10 07:00:27;;;;;;;5.13;2.23;;;4.60;99.90;;;;;;5036957;28;20813;-68
2021/12/10 07:02:53;;;;;;;2.63;2.40;;;4.60;99.90;;;;;;5036768;28;20198;-68
2021/12/10 07:05:19;;;;;;;3.77;2.30;;;4.50;99.90;;;;;;5038478;28;20450;-67
2021/12/10 07:07:46;;;;;;;3.73;2.80;;;4.40;99.90;;;;;;5051930;28;20214;-67
2021/12/10 07:10:14;;;;;;;4.87;2.57;;;4.50;99.90;;;;;;5032887;28;20441;-67
2021/12/10 07:12:42;;;;;;;11.10;3.30;;;4.50;99.90;;;;;;5033465;28;20431;-68
2021/12/10 07:15:10;;;;;;;3.50;2.33;;;4.50;99.90;;;;;;5033268;28;20855;-68
2021/12/10 07:17:39;;;;;;;4.80;2.30;;;4.50;99.90;;;;;;5033185;28;20439;-68
2021/12/10 07:20:06;;;;;;;2.30;2.07;;;4.60;99.90;;;;;;5033480;28;20416;-68
2021/12/10 07:22:32;;;;;;;5.87;2.90;;;4.60;99.90;;;;;;5033136;28;20511;-68
2021/12/10 07:24:57;;;;;;;5.50;2.53;;;4.60;99.90;;;;;;5033877;28;20445;-68
2021/12/10 07:27:23;;;;;;;4.27;2.60;;;4.60;99.90;;;;;;5014758;28;20213;-67
2021/12/10 07:29:49;;;;;;;4.03;2.37;;;4.60;99.90;;;;;;5014105;28;20614;-66
2021/12/10 07:32:14;;;;;;;8.10;3.10;;;4.60;99.90;;;;;;5013820;28;20182;-68
2021/12/10 07:34:40;;;;;;;6.40;3.20;;;4.60;99.90;;;;;;5014361;28;20207;-67
2021/12/10 07:37:08;;;;;;;4.93;2.90;;;4.60;99.90;;;;;;5013034;28;20201;-68
2021/12/10 07:39:35;;;;;;;6.17;2.90;;;4.60;99.90;;;;;;5013233;28;20236;-68
2021/12/10 07:42:01;;;;;;;4.50;2.80;;;4.60;99.90;;;;;;5012884;28;20423;-69
2021/12/10 07:44:27;;;;;;;6.80;2.53;;;4.50;99.90;;;;;;5013446;28;20979;-68
2021/12/10 07:46:55;;;;;;;7.00;2.63;;;4.50;99.90;;;;;;5013280;28;20402;-67
2021/12/10 07:49:28;;;;;;;6.83;3.07;;;4.50;99.90;;;;;;5013630;28;20410;-68
2021/12/10 07:51:54;;;;;;;6.40;2.60;;;4.50;99.90;;;;;;5011899;28;20418;-68
2021/12/10 07:54:20;;;;;;;5.67;2.70;;;4.50;99.90;;;;;;5013193;28;20430;-69
2021/12/10 07:56:46;;;;;;;11.17;3.33;;;4.50;99.90;;;;;;5012669;28;20403;-68
2021/12/10 07:59:12;;;;;;;4.60;2.40;;;4.50;99.90;;;;;;5012621;28;20413;-69
2021/12/10 08:01:37;;;;;;;3.60;2.37;;;4.50;99.90;;;;;;5011527;28;20172;-69
2021/12/10 08:04:04;;;;;;;3.83;2.50;;;4.50;99.90;;;;;;5013364;28;20671;-70
2021/12/10 08:06:31;;;;;;;3.40;2.30;;;4.50;99.90;;;;;;5012933;28;20180;-67
2021/12/10 08:08:57;;;;;;;8.37;2.93;;;4.60;99.90;;;;;;5013116;28;20453;-67
2021/12/10 08:11:24;;;;;;;8.73;2.90;;;4.60;99.90;;;;;;5013074;28;20411;-67
2021/12/10 08:13:50;;;;;;;4.47;2.50;;;4.60;99.90;;;;;;5013629;28;20416;-68
2021/12/10 08:16:16;;;;;;;12.40;2.50;;;4.60;99.90;;;;;;5027971;28;20452;-68
2021/12/10 08:18:42;;;;;;;3.80;2.60;;;4.60;99.90;;;;;;5032358;28;20848;-67
2021/12/10 08:21:08;;;;;;;3.40;2.50;;;4.70;99.90;;;;;;5033002;28;20920;-67
2021/12/10 08:23:36;;;;;;;2.53;2.33;;;4.60;99.90;;;;;;5033039;28;20404;-67
2021/12/10 08:26:03;;;;;;;5.30;2.47;;;4.70;99.90;;;;;;5032852;28;20414;-69
2021/12/10 08:28:28;;;;;;;9.07;2.40;;;4.60;99.90;;;;;;5033311;28;20439;-69
2021/12/10 08:30:55;;;;;;;3.40;2.37;;;4.70;99.90;;;;;;5032963;28;20410;-67
2021/12/10 08:33:22;;;;;;;7.00;2.70;;;4.70;99.90;;;;;;5032861;28;20714;-68
2021/12/10 08:35:52;;;;;;;7.23;3.40;;;4.70;99.90;;;;;;5032028;28;20852;-67
2021/12/10 08:38:18;;;;;;;4.03;2.87;;;4.70;99.90;;;;;;5033240;28;20429;-69
2021/12/10 08:40:49;;;;;;;4.83;2.37;;;4.70;99.90;;;;;;5033194;28;20409;-68
2021/12/10 08:43:16;;;;;;;2.73;2.40;;;4.70;99.90;;;;;;5032873;28;20415;-68
2021/12/10 08:45:43;;;;;;;3.93;2.80;;;4.80;99.90;;;;;;5032410;28;20909;-68
2021/12/10 08:48:08;;;;;;;7.17;3.37;;;4.80;99.90;;;;;;5033314;28;20444;-69
2021/12/10 08:50:35;;;;;;;4.13;2.10;;;4.80;99.90;;;;;;5034261;28;20424;-70
2021/12/10 08:53:06;;;;;;;3.33;2.83;;;4.90;99.90;;;;;;5039782;28;20177;-70
2021/12/10 08:55:34;;;;;;;5.43;2.30;;;4.90;99.90;;;;;;5033321;28;20445;-70
2021/12/10 08:58:00;;;;;;;3.40;2.40;;;4.90;99.90;;;;;;5033760;28;20433;-68
2021/12/10 09:00:27;;;;;;;3.13;2.30;;;4.90;99.90;;;;;;5033868;28;20420;-68
2021/12/10 09:02:55;;;;;;;2.50;1.80;;;4.90;99.90;;;;;;5031908;28;20432;-68
2021/12/10 09:05:21;;;;;;;5.90;2.00;;;4.90;99.90;;;;;;5033194;28;20417;-69
2021/12/10 09:07:47;;;;;;;2.87;2.00;;;5.00;99.90;;;;;;5032191;28;20458;-69
2021/12/10 09:10:17;;;;;;;2.90;1.80;;;5.00;99.90;;;;;;5032880;28;20415;-69
2021/12/10 09:12:43;;;;;;;3.67;2.43;;;5.00;99.90;;;;;;5035720;28;20902;-69
2021/12/10 09:15:13;;;;;;;9.60;2.60;;;5.00;99.90;;;;;;5036449;28;20551;-69
2021/12/10 09:17:40;;;;;;;3.97;2.47;;;5.00;99.90;;;;;;5035711;28;20508;-68
2021/12/10 09:20:13;;;;;;;8.77;1.97;;;5.10;99.90;;;;;;5036448;28;20966;-69
2021/12/10 09:22:40;;;;;;;6.33;2.50;;;5.00;99.90;;;;;;5034804;28;20424;-69
2021/12/10 09:25:07;;;;;;;3.50;2.37;;;5.10;99.90;;;;;;5036269;28;20424;-67
2021/12/10 09:27:34;;;;;;;6.57;2.70;;;5.10;99.90;;;;;;5035355;28;20437;-68
2021/12/10 09:29:59;;;;;;;3.17;1.90;;;5.10;99.90;;;;;;5035796;28;20888;-69
2021/12/10 09:32:26;;;;;;;3.47;1.90;;;5.10;99.90;;;;;;5036002;28;20417;-69
2021/12/10 09:34:57;;;;;;;3.93;2.50;;;5.10;99.90;;;;;;5035783;28;20222;-69
2021/12/10 09:37:24;;;;;;;5.43;2.27;;;5.10;99.90;;;;;;5035164;28;20457;-69
2021/12/10 09:39:51;;;;;;;3.90;2.83;;;5.10;99.90;;;;;;5035125;28;20982;-69
2021/12/10 09:42:20;;;;;;;2.90;2.17;;;5.10;99.90;;;;;;5035578;28;20404;-68
2021/12/10 09:44:46;;;;;;;3.37;1.90;;;5.20;99.90;;;;;;5035730;28;20409;-70
2021/12/10 09:47:15;;;;;;;4.50;2.10;;;5.20;99.90;;;;;;5033972;28;20445;-69
2021/12/10 09:49:43;;;;;;;3.87;2.40;;;5.20;99.90;;;;;;5035874;28;20448;-71
2021/12/10 09:52:09;;;;;;;8.53;2.50;;;5.20;99.90;;;;;;5037444;28;20414;-69
2021/12/10 09:54:36;;;;;;;4.40;2.53;;;5.20;99.90;;;;;;5035418;28;20504;-68
2021/12/10 09:57:10;;;;;;;3.90;2.40;;;5.20;99.90;;;;;;5034840;28;20186;-68
2021/12/10 09:59:39;;;;;;;4.70;2.10;;;5.20;99.90;;;;;;5035481;28;20405;-69
2021/12/10 10:02:06;;;;;;;2.03;1.70;;;5.20;99.90;;;;;;5034770;28;20406;-68
2021/12/10 10:04:35;;;;;;;2.40;2.13;;;5.20;99.90;;;;;;5034009;28;20419;-69
2021/12/10 10:07:13;;;;;;;3.77;2.83;;;5.20;99.90;;;;;;5035337;28;20445;-69
2021/12/10 10:09:48;;;;;;;5.40;2.37;;;5.30;99.90;;;;;;5036510;28;20400;-70
2021/12/10 10:12:19;;;;;;;6.00;2.57;;;5.30;99.90;;;;;;5035951;28;20400;-70
2021/12/10 10:14:45;;;;;;;3.70;2.00;;;5.40;99.90;;;;;;5035144;28;20540;-68
2021/12/10 10:17:12;;;;;;;4.67;2.70;;;5.50;99.90;;;;;;5034649;28;20504;-69
2021/12/10 10:19:41;;;;;;;4.60;2.10;;;5.50;99.90;;;;;;5035615;28;20174;-68
2021/12/10 10:22:11;;;;;;;4.30;2.00;;;5.50;99.90;;;;;;5036053;28;20398;-67
2021/12/10 10:24:37;;;;;;;3.20;2.30;;;5.60;99.90;;;;;;5035378;28;20942;-68
2021/12/10 10:27:09;;;;;;;3.20;2.17;;;5.70;99.90;;;;;;5034964;28;20429;-68
2021/12/10 10:29:45;;;;;;;5.47;2.00;;;5.60;99.90;;;;;;5034924;28;20771;-68
2021/12/10 10:32:14;;;;;;;3.20;2.90;;;5.50;99.90;;;;;;5034938;28;20405;-69
2021/12/10 10:34:46;;;;;;;6.50;2.37;;;5.60;99.90;;;;;;5033526;28;20413;-68
2021/12/10 10:37:12;;;;;;;2.37;2.27;;;5.70;99.90;;;;;;5034429;28;20494;-68
2021/12/10 10:39:40;;;;;;;8.73;2.53;;;5.70;99.90;;;;;;5034835;28;20444;-68
2021/12/10 10:42:11;;;;;;;4.53;2.30;;;5.70;99.90;;;;;;5034638;28;20818;-70
2021/12/10 10:44:37;;;;;;;5.17;2.53;;;5.70;99.90;;;;;;5034535;28;20902;-68
2021/12/10 10:47:03;;;;;;;2.80;2.10;;;5.80;99.90;;;;;;5034537;28;20440;-68
2021/12/10 10:49:37;;;;;;;3.87;2.20;;;5.90;99.90;;;;;;5034402;28;20505;-69
2021/12/10 10:52:21;;;;;;;3.60;2.40;;;5.90;99.90;;;;;;5033004;28;20952;-67
2021/12/10 10:54:49;;;;;;;6.80;2.03;;;6.00;99.90;;;;;;5033377;28;20450;-69
2021/12/10 10:57:31;;;;;;;3.40;1.93;;;6.10;99.90;;;;;;5034199;28;20421;-68
2021/12/10 11:00:12;;;;;;;5.80;2.37;;;6.10;99.90;;;;;;5034267;28;20417;-68
2021/12/10 11:02:49;;;;;;;4.10;2.27;;;6.10;99.90;;;;;;5034457;28;20405;-68
2021/12/10 11:05:15;;;;;;;5.80;2.20;;;6.10;99.90;;;;;;5034735;28;20413;-68
2021/12/10 11:07:51;;;;;;;2.73;1.90;;;6.10;99.90;;;;;;5034135;28;20472;-68
2021/12/10 11:10:45;;;;;;;6.50;2.40;;;6.10;99.90;;;;;;5034437;28;20663;-67
2021/12/10 11:13:21;;;;;;;7.23;2.80;;;6.10;99.90;;;;;;5033060;28;20422;-68
2021/12/10 11:16:14;;;;;;;1.87;1.67;;;6.10;99.90;;;;;;5034043;28;20815;-69
2021/12/10 11:18:49;;;;;;;3.30;1.83;;;6.10;99.90;;;;;;5032291;28;20469;-69
2021/12/10 11:21:17;;;;;;;6.10;1.90;;;6.20;99.90;;;;;;5033977;28;20433;-67
2021/12/10 11:23:43;;;;;;;2.27;2.07;;;6.20;99.90;;;;;;5034487;28;20411;-67
2021/12/10 11:26:09;;;;;;;4.63;2.20;;;6.20;99.90;;;;;;5032812;28;20559;-69
2021/12/10 11:28:40;;;;;;;3.80;2.37;;;6.10;99.90;;;;;;5034518;28;20465;-69
2021/12/10 11:31:18;;;;;;;5.53;2.47;;;6.10;99.90;;;;;;5035145;28;20425;-69
2021/12/10 11:33:49;;;;;;;2.20;2.00;;;6.20;99.90;;;;;;5033337;28;20402;-67
2021/12/10 11:36:25;;;;;;;2.73;2.00;;;6.20;99.90;;;;;;5034455;28;20561;-68
2021/12/10 11:38:56;;;;;;;1.77;1.67;;;6.30;99.90;;;;;;5034164;28;20790;-68
2021/12/10 11:41:26;;;;;;;5.37;2.43;;;6.30;99.90;;;;;;5033735;28;20433;-68
2021/12/10 11:44:17;;;;;;;3.73;1.80;;;6.40;99.90;;;;;;5033681;28;20413;-69
2021/12/10 11:49:39;;;;;;;5.93;2.53;;;6.40;99.90;;;;;;5034025;28;20407;-69
2021/12/10 11:52:09;;;;;;;3.27;2.03;;;6.20;99.90;;;;;;5034352;28;20390;-69
2021/12/10 11:54:43;;;;;;;3.63;2.13;;;6.30;99.90;;;;;;5033868;28;20406;-69
2021/12/10 11:57:17;;;;;;;3.40;2.20;;;6.10;99.90;;;;;;5033406;28;20434;-69
2021/12/10 11:59:45;;;;;;;6.80;3.37;;;6.20;99.90;;;;;;5034232;28;20412;-69
2021/12/10 12:02:21;;;;;;;8.10;3.33;;;6.30;99.90;;;;;;5034458;28;20413;-68
2021/12/10 12:04:50;;;;;;;5.13;2.30;;;6.20;99.90;;;;;;4998595;28;20447;-69
2021/12/10 12:07:16;;;;;;;6.50;2.33;;;6.30;99.90;;;;;;4992826;28;20454;-69
2021/12/10 12:09:43;;;;;;;3.03;2.00;;;6.30;99.90;;;;;;4997570;28;20519;-68
2021/12/10 12:12:38;;;;;;;6.20;2.50;;;6.30;99.90;;;;;;4994218;28;20211;-70
2021/12/10 12:15:11;;;;;;;4.50;2.53;;;6.20;99.90;;;;;;5004440;28;20463;-68
2021/12/10 12:17:42;;;;;;;6.13;2.90;;;6.10;99.90;;;;;;5032735;28;20432;-70
2021/12/10 12:20:32;;;;;;;9.93;4.17;;;6.20;99.90;;;;;;5032632;28;20433;-69
2021/12/10 12:26:18;;;;;;;3.70;2.27;;;6.30;99.90;;;;;;5033181;28;20424;-69
2021/12/10 12:28:53;;;;;;;2.50;2.20;;;6.40;99.90;;;;;;5033636;28;20440;-69
2021/12/10 12:31:29;;;;;;;3.47;2.43;;;6.30;99.90;;;;;;5033741;28;20405;-68
2021/12/10 12:34:07;;;;;;;3.33;2.10;;;6.40;99.90;;;;;;5033386;28;20381;-68
2021/12/10 12:37:06;;;;;;;9.97;2.27;;;6.40;99.90;;;;;;5033223;28;20453;-68
2021/12/10 12:39:54;;;;;;;4.43;2.50;;;6.40;99.90;;;;;;5010988;28;20429;-69
2021/12/10 12:42:25;;;;;;;3.40;2.17;;;6.40;99.90;;;;;;5011499;28;20406;-68
2021/12/10 12:44:55;;;;;;;2.50;1.90;;;6.40;99.90;;;;;;5011005;28;20922;-68
2021/12/10 12:47:26;;;;;;;3.70;3.00;;;6.50;99.90;;;;;;5012654;28;20517;-68
2021/12/10 12:50:06;;;;;;;3.23;2.20;;;6.50;99.90;;;;;;5014376;28;20430;-68
2021/12/10 12:52:59;;;;;;;5.73;3.33;;;6.50;99.90;;;;;;5014419;28;20418;-68
2021/12/10 12:55:31;;;;;;;4.60;2.93;;;6.60;99.90;;;;;;5014870;28;20974;-68
2021/12/10 12:58:11;;;;;;;2.77;2.00;;;6.60;99.90;;;;;;5014104;28;20433;-68
2021/12/10 13:01:06;;;;;;;4.60;2.53;;;6.70;99.90;;;;;;5014428;28;20470;-69
2021/12/10 13:03:46;;;;;;;2.40;2.20;;;6.80;99.90;;;;;;5013878;28;20496;-69
2021/12/10 13:06:22;;;;;;;3.17;2.07;;;6.80;99.90;;;;;;5014109;28;20422;-69
2021/12/10 13:09:16;;;;;;;4.20;2.53;;;6.90;99.90;;;;;;5013982;28;20458;-69
2021/12/10 13:11:53;;;;;;;4.07;2.07;;;6.90;99.90;;;;;;5011908;28;20429;-68
2021/12/10 13:14:22;;;;;;;10.20;2.50;;;6.90;99.90;;;;;;4998050;28;20505;-69
2021/12/10 13:16:51;;;;;;;2.90;2.40;;;6.80;99.90;;;;;;4993257;28;20467;-68
2021/12/10 13:19:21;;;;;;;2.90;2.20;;;6.60;99.90;;;;;;4997344;28;20408;-69
2021/12/10 13:21:55;;;;;;;5.17;2.70;;;6.60;99.90;;;;;;4996713;28;20408;-69